createdAt,value
2019-05-18T00:00:09.079Z,7.60
2019-05-18T00:01:09.070Z,7.55
2019-05-18T00:02:09.081Z,7.50
2019-05-18T00:03:09.073Z,7.52
2019-05-18T00:04:09.068Z,7.52
2019-05-18T00:05:09.071Z,7.49
2019-05-18T00:06:09.067Z,7.47
2019-05-18T00:07:09.067Z,7.45
2019-05-18T00:08:09.068Z,7.44
2019-05-18T00:09:09.067Z,7.41
2019-05-18T00:10:09.084Z,7.40
2019-05-18T00:11:09.067Z,7.41
2019-05-18T00:12:09.061Z,7.41
2019-05-18T00:13:09.062Z,7.43
2019-05-18T00:14:09.070Z,7.42
2019-05-18T00:15:09.080Z,7.41
2019-05-18T00:16:09.061Z,7.43
2019-05-18T00:17:24.244Z,7.45
2019-05-18T00:18:09.066Z,7.47
2019-05-18T00:19:09.060Z,7.51
2019-05-18T00:20:09.067Z,7.50
2019-05-18T00:21:09.061Z,7.48
2019-05-18T00:22:09.063Z,7.46
2019-05-18T00:23:09.060Z,7.45
2019-05-18T00:24:09.056Z,7.45
2019-05-18T00:25:09.064Z,7.42
2019-05-18T00:26:09.053Z,7.40
2019-05-18T00:27:09.060Z,7.36
2019-05-18T00:28:09.058Z,7.34
2019-05-18T00:29:09.054Z,7.29
2019-05-18T00:30:09.060Z,7.23
2019-05-18T00:31:09.060Z,7.20
2019-05-18T00:32:09.059Z,7.18
2019-05-18T00:33:09.052Z,7.16
2019-05-18T00:34:09.065Z,7.14
2019-05-18T00:35:09.054Z,7.16
2019-05-18T00:36:09.061Z,7.18
2019-05-18T00:37:09.049Z,7.20
2019-05-18T00:38:09.044Z,7.23
2019-05-18T00:39:09.048Z,7.22
2019-05-18T00:40:09.049Z,7.21
2019-05-18T00:41:09.056Z,7.18
2019-05-18T00:42:09.046Z,7.17
2019-05-18T00:43:09.044Z,7.15
2019-05-18T00:44:09.044Z,7.11
2019-05-18T00:45:09.046Z,7.10
2019-05-18T00:46:09.048Z,7.09
2019-05-18T00:47:09.043Z,7.08
2019-05-18T00:48:09.043Z,7.05
2019-05-18T00:49:09.042Z,7.03
2019-05-18T00:50:09.044Z,7.00
2019-05-18T00:51:09.052Z,6.96
2019-05-18T00:52:09.038Z,6.94
2019-05-18T00:53:09.039Z,6.91
2019-05-18T00:54:09.039Z,6.89
2019-05-18T00:55:09.048Z,6.87
2019-05-18T00:56:09.049Z,6.86
2019-05-18T00:57:09.038Z,6.82
2019-05-18T00:58:09.038Z,6.80
2019-05-18T00:59:09.036Z,6.78
2019-05-18T01:00:09.034Z,6.78
2019-05-18T01:01:09.151Z,6.77
2019-05-18T01:02:09.041Z,6.75
2019-05-18T01:03:09.034Z,6.74
2019-05-18T01:04:09.033Z,6.74
2019-05-18T01:05:09.036Z,6.76
2019-05-18T01:06:09.041Z,6.74
2019-05-18T01:07:09.038Z,6.69
2019-05-18T01:08:09.029Z,6.65
2019-05-18T01:09:09.030Z,6.64
2019-05-18T01:10:09.034Z,6.60
2019-05-18T01:11:09.039Z,6.59
2019-05-18T01:12:09.029Z,6.59
2019-05-18T01:13:09.027Z,6.60
2019-05-18T01:14:09.032Z,6.61
2019-05-18T01:15:09.034Z,6.67
2019-05-18T01:16:09.027Z,6.66
2019-05-18T01:17:09.025Z,6.64
2019-05-18T01:18:09.021Z,6.59
2019-05-18T01:19:09.023Z,6.51
2019-05-18T01:20:09.028Z,6.45
2019-05-18T01:21:09.033Z,6.39
2019-05-18T01:22:09.023Z,6.32
2019-05-18T01:23:09.021Z,6.28
2019-05-18T01:24:09.021Z,6.26
2019-05-18T01:25:09.019Z,6.24
2019-05-18T01:26:09.023Z,6.21
2019-05-18T01:27:09.025Z,6.21
2019-05-18T01:28:09.022Z,6.20
2019-05-18T01:29:09.016Z,6.21
2019-05-18T01:30:09.023Z,6.27
2019-05-18T01:31:09.019Z,6.32
2019-05-18T01:32:09.017Z,6.38
2019-05-18T01:33:09.047Z,6.43
2019-05-18T01:34:09.014Z,6.44
2019-05-18T01:35:09.015Z,6.38
2019-05-18T01:36:09.013Z,6.31
2019-05-18T01:37:09.016Z,6.26
2019-05-18T01:38:09.013Z,6.21
2019-05-18T01:39:09.013Z,6.14
2019-05-18T01:40:09.012Z,6.07
2019-05-18T01:41:09.019Z,6.02
2019-05-18T01:42:09.018Z,5.98
2019-05-18T01:43:09.010Z,5.98
2019-05-18T01:44:09.011Z,5.95
2019-05-18T01:45:17.031Z,5.93
2019-05-18T01:46:09.008Z,5.92
2019-05-18T01:47:09.018Z,5.91
2019-05-18T01:48:13.700Z,5.87
2019-05-18T01:49:09.006Z,5.88
2019-05-18T01:50:09.008Z,5.89
2019-05-18T01:51:09.006Z,5.90
2019-05-18T01:52:09.047Z,5.87
2019-05-18T01:53:09.005Z,5.83
2019-05-18T01:54:09.010Z,5.80
2019-05-18T01:55:09.013Z,5.78
2019-05-18T01:56:09.003Z,5.75
2019-05-18T01:57:09.006Z,5.70
2019-05-18T01:58:09.000Z,5.62
2019-05-18T01:59:09.004Z,5.55
2019-05-18T02:00:09.016Z,5.48
2019-05-18T02:01:08.999Z,5.47
2019-05-18T02:02:09.008Z,5.49
2019-05-18T02:03:09.000Z,5.53
2019-05-18T02:04:08.996Z,5.54
2019-05-18T02:05:08.996Z,5.52
2019-05-18T02:06:08.997Z,5.51
2019-05-18T02:07:09.009Z,5.51
2019-05-18T02:08:09.000Z,5.53
2019-05-18T02:09:09.004Z,5.52
2019-05-18T02:10:08.994Z,5.50
2019-05-18T02:11:08.994Z,5.50
2019-05-18T02:12:08.998Z,5.52
2019-05-18T02:13:09.007Z,5.55
2019-05-18T02:14:08.991Z,5.59
2019-05-18T02:15:08.997Z,5.62
2019-05-18T02:16:08.989Z,5.64
2019-05-18T02:17:08.999Z,5.65
2019-05-18T02:18:08.991Z,5.76
2019-05-18T02:19:08.992Z,5.82
2019-05-18T02:20:08.988Z,5.91
2019-05-18T02:21:08.989Z,5.94
2019-05-18T02:22:08.996Z,5.91
2019-05-18T02:23:08.987Z,5.93
2019-05-18T02:24:08.991Z,5.99
2019-05-18T02:25:08.987Z,5.98
2019-05-18T02:26:08.986Z,5.88
2019-05-18T02:27:08.998Z,5.77
2019-05-18T02:28:09.000Z,5.66
2019-05-18T02:29:08.985Z,5.56
2019-05-18T02:30:08.990Z,5.47
2019-05-18T02:31:08.984Z,5.38
2019-05-18T02:32:08.992Z,5.32
2019-05-18T02:33:08.981Z,5.28
2019-05-18T02:34:08.980Z,5.26
2019-05-18T02:35:08.979Z,5.30
2019-05-18T02:36:08.979Z,5.39
2019-05-18T02:37:08.988Z,5.51
2019-05-18T02:38:08.979Z,5.58
2019-05-18T02:39:08.983Z,5.62
2019-05-18T02:40:08.982Z,5.65
2019-05-18T02:41:08.975Z,5.62
2019-05-18T02:42:08.975Z,5.61
2019-05-18T02:43:08.980Z,5.67
2019-05-18T02:44:08.974Z,5.69
2019-05-18T02:45:08.980Z,5.61
2019-05-18T02:46:08.977Z,5.53
2019-05-18T02:47:08.982Z,5.45
2019-05-18T02:48:08.979Z,5.37
2019-05-18T02:49:08.970Z,5.33
2019-05-18T02:50:08.972Z,5.30
2019-05-18T02:51:11.394Z,5.28
2019-05-18T02:52:08.968Z,5.26
2019-05-18T02:53:08.973Z,5.26
2019-05-18T02:54:08.967Z,5.30
2019-05-18T02:55:08.971Z,5.34
2019-05-18T02:56:08.970Z,5.33
2019-05-18T02:57:08.967Z,5.34
2019-05-18T02:58:08.973Z,5.40
2019-05-18T02:59:08.966Z,5.40
2019-05-18T03:00:08.975Z,5.39
2019-05-18T03:01:08.966Z,5.39
2019-05-18T03:02:08.963Z,5.38
2019-05-18T03:03:08.972Z,5.35
2019-05-18T03:04:08.982Z,5.28
2019-05-18T03:05:08.959Z,5.24
2019-05-18T03:06:08.962Z,5.22
2019-05-18T03:07:08.963Z,5.20
2019-05-18T03:08:08.969Z,5.15
2019-05-18T03:09:08.961Z,5.12
2019-05-18T03:10:08.962Z,5.08
2019-05-18T03:11:08.959Z,5.08
2019-05-18T03:12:08.958Z,5.18
2019-05-18T03:13:08.959Z,5.22
2019-05-18T03:14:08.966Z,5.23
2019-05-18T03:15:08.956Z,5.26
2019-05-18T03:16:08.971Z,5.28
2019-05-18T03:17:08.955Z,5.29
2019-05-18T03:18:08.968Z,5.29
2019-05-18T03:19:09.406Z,5.33
2019-05-18T03:20:08.954Z,5.38
2019-05-18T03:21:08.950Z,5.42
2019-05-18T03:22:08.953Z,5.43
2019-05-18T03:23:08.960Z,5.39
2019-05-18T03:24:08.950Z,5.36
2019-05-18T03:25:08.949Z,5.31
2019-05-18T03:26:08.952Z,5.26
2019-05-18T03:27:08.955Z,5.22
2019-05-18T03:28:08.969Z,5.16
2019-05-18T03:29:08.947Z,5.11
2019-05-18T03:30:08.949Z,5.06
2019-05-18T03:31:08.946Z,5.01
2019-05-18T03:32:08.946Z,5.00
2019-05-18T03:33:08.954Z,5.01
2019-05-18T03:34:08.950Z,5.09
2019-05-18T03:35:08.946Z,5.16
2019-05-18T03:36:08.946Z,5.19
2019-05-18T03:37:08.946Z,5.18
2019-05-18T03:38:08.949Z,5.17
2019-05-18T03:39:08.952Z,5.15
2019-05-18T03:40:08.946Z,5.13
2019-05-18T03:41:08.946Z,5.16
2019-05-18T03:42:08.941Z,5.17
2019-05-18T03:43:08.951Z,5.16
2019-05-18T03:44:08.947Z,5.17
2019-05-18T03:45:08.941Z,5.16
2019-05-18T03:46:08.943Z,5.13
2019-05-18T03:47:08.941Z,5.10
2019-05-18T03:48:08.937Z,5.07
2019-05-18T03:49:25.290Z,5.08
2019-05-18T03:50:08.941Z,5.08
2019-05-18T03:51:08.937Z,5.07
2019-05-18T03:52:08.935Z,5.09
2019-05-18T03:53:08.929Z,5.14
2019-05-18T03:54:08.942Z,5.20
2019-05-18T03:55:08.949Z,5.27
2019-05-18T03:56:08.941Z,5.30
2019-05-18T03:57:08.932Z,5.34
2019-05-18T03:58:08.925Z,5.39
2019-05-18T03:59:08.956Z,5.42
2019-05-18T04:00:08.940Z,5.41
2019-05-18T04:01:08.928Z,5.35
2019-05-18T04:02:08.929Z,5.32
2019-05-18T04:03:08.929Z,5.30
2019-05-18T04:04:08.927Z,5.30
2019-05-18T04:05:08.931Z,5.30
2019-05-18T04:06:08.927Z,5.28
2019-05-18T04:07:08.926Z,5.27
2019-05-18T04:08:08.949Z,5.27
2019-05-18T04:09:08.925Z,5.28
2019-05-18T04:10:08.934Z,5.28
2019-05-18T04:11:08.922Z,5.27
2019-05-18T04:12:08.924Z,5.27
2019-05-18T04:13:08.922Z,5.27
2019-05-18T04:14:09.072Z,5.26
2019-05-18T04:15:08.924Z,5.27
2019-05-18T04:16:08.926Z,5.31
2019-05-18T04:17:08.921Z,5.34
2019-05-18T04:18:08.919Z,5.35
2019-05-18T04:19:08.919Z,5.37
2019-05-18T04:20:08.932Z,5.37
2019-05-18T04:21:08.934Z,5.39
2019-05-18T04:22:08.925Z,5.40
2019-05-18T04:23:08.918Z,5.40
2019-05-18T04:24:08.918Z,5.40
2019-05-18T04:25:08.944Z,5.40
2019-05-18T04:26:08.941Z,5.40
2019-05-18T04:27:08.915Z,5.43
2019-05-18T04:28:08.914Z,5.46
2019-05-18T04:29:08.915Z,5.45
2019-05-18T04:30:08.915Z,5.49
2019-05-18T04:31:08.912Z,5.56
2019-05-18T04:32:08.910Z,5.63
2019-05-18T04:33:08.915Z,5.68
2019-05-18T04:34:08.916Z,5.71
2019-05-18T04:35:08.921Z,5.73
2019-05-18T04:36:08.913Z,5.74
2019-05-18T04:37:08.909Z,5.75
2019-05-18T04:38:08.908Z,5.78
2019-05-18T04:39:08.910Z,5.82
2019-05-18T04:40:08.916Z,5.86
2019-05-18T04:41:08.906Z,5.89
2019-05-18T04:42:08.918Z,5.93
2019-05-18T04:43:08.906Z,5.95
2019-05-18T04:44:08.907Z,5.97
2019-05-18T04:45:08.933Z,6.00
2019-05-18T04:46:08.903Z,6.00
2019-05-18T04:47:08.906Z,6.03
2019-05-18T04:48:08.901Z,6.08
2019-05-18T04:49:08.902Z,6.11
2019-05-18T04:50:08.993Z,6.11
2019-05-18T04:51:08.900Z,6.12
2019-05-18T04:52:08.909Z,6.14
2019-05-18T04:53:08.898Z,6.18
2019-05-18T04:54:08.899Z,6.21
2019-05-18T04:55:08.899Z,6.23
2019-05-18T04:56:08.905Z,6.20
2019-05-18T04:57:08.897Z,6.23
2019-05-18T04:58:08.895Z,6.29
2019-05-18T04:59:08.895Z,6.35
2019-05-18T05:00:08.896Z,6.39
2019-05-18T05:01:08.910Z,6.38
2019-05-18T05:02:08.908Z,6.38
2019-05-18T05:03:08.893Z,6.39
2019-05-18T05:04:08.891Z,6.38
2019-05-18T05:05:08.902Z,6.39
2019-05-18T05:06:08.900Z,6.41
2019-05-18T05:07:08.891Z,6.45
2019-05-18T05:08:08.891Z,6.47
2019-05-18T05:09:08.895Z,6.47
2019-05-18T05:10:08.899Z,6.49
2019-05-18T05:11:08.897Z,6.50
2019-05-18T05:12:08.888Z,6.54
2019-05-18T05:13:08.887Z,6.62
2019-05-18T05:14:08.891Z,6.75
2019-05-18T05:15:08.892Z,6.88
2019-05-18T05:16:08.889Z,7.02
2019-05-18T05:17:08.882Z,7.14
2019-05-18T05:18:08.887Z,7.23
2019-05-18T05:19:08.979Z,7.32
2019-05-18T05:20:19.146Z,7.41
2019-05-18T05:21:08.890Z,7.47
2019-05-18T05:22:08.881Z,7.56
2019-05-18T05:23:08.882Z,7.69
2019-05-18T05:24:08.879Z,7.80
2019-05-18T05:25:08.887Z,7.91
2019-05-18T05:26:08.882Z,8.03
2019-05-18T05:27:08.880Z,8.15
2019-05-18T05:28:08.880Z,8.27
2019-05-18T05:29:08.874Z,8.40
2019-05-18T05:30:08.877Z,8.53
2019-05-18T05:31:08.885Z,8.67
2019-05-18T05:32:08.879Z,8.73
2019-05-18T05:33:08.874Z,8.84
2019-05-18T05:34:08.881Z,8.92
2019-05-18T05:35:08.878Z,9.03
2019-05-18T05:36:08.884Z,9.14
2019-05-18T05:37:08.874Z,9.24
2019-05-18T05:38:08.874Z,9.32
2019-05-18T05:39:08.873Z,9.37
2019-05-18T05:40:08.873Z,9.41
2019-05-18T05:41:08.883Z,9.45
2019-05-18T05:42:08.871Z,9.50
2019-05-18T05:43:08.868Z,9.57
2019-05-18T05:44:08.865Z,9.63
2019-05-18T05:45:08.873Z,9.70
2019-05-18T05:46:08.889Z,9.76
2019-05-18T05:47:08.867Z,9.82
2019-05-18T05:48:08.866Z,9.89
2019-05-18T05:49:08.867Z,9.99
2019-05-18T05:50:08.865Z,10.07
2019-05-18T05:51:08.864Z,10.16
2019-05-18T05:52:08.868Z,10.25
2019-05-18T05:53:08.865Z,10.34
2019-05-18T05:54:08.871Z,10.46
2019-05-18T05:55:08.865Z,10.54
2019-05-18T05:56:08.865Z,10.62
2019-05-18T05:57:08.862Z,10.69
2019-05-18T05:58:08.867Z,10.75
2019-05-18T05:59:08.859Z,10.79
2019-05-18T06:00:08.860Z,10.82
2019-05-18T06:01:08.858Z,10.84
2019-05-18T06:02:08.861Z,10.86
2019-05-18T06:03:08.860Z,10.88
2019-05-18T06:04:08.857Z,10.91
2019-05-18T06:05:08.856Z,10.93
2019-05-18T06:06:08.861Z,10.95
2019-05-18T06:07:08.868Z,10.97
2019-05-18T06:08:08.857Z,11.00
2019-05-18T06:09:08.863Z,11.05
2019-05-18T06:10:08.853Z,11.06
2019-05-18T06:11:08.856Z,11.09
2019-05-18T06:12:08.857Z,11.11
2019-05-18T06:13:08.853Z,11.14
2019-05-18T06:14:08.854Z,11.17
2019-05-18T06:15:08.857Z,11.21
2019-05-18T06:16:08.853Z,11.27
2019-05-18T06:17:08.864Z,11.35
2019-05-18T06:18:08.849Z,11.44
2019-05-18T06:19:08.849Z,11.52
2019-05-18T06:20:08.852Z,11.63
2019-05-18T06:21:08.849Z,11.72
2019-05-18T06:22:08.842Z,11.79
2019-05-18T06:23:08.850Z,11.87
2019-05-18T06:24:08.841Z,11.96
2019-05-18T06:25:08.976Z,12.05
2019-05-18T06:26:08.857Z,12.14
2019-05-18T06:27:08.844Z,12.24
2019-05-18T06:28:08.846Z,12.36
2019-05-18T06:29:08.847Z,12.45
2019-05-18T06:30:08.842Z,12.52
2019-05-18T06:31:08.843Z,12.61
2019-05-18T06:32:08.841Z,12.71
2019-05-18T06:33:08.852Z,12.80
2019-05-18T06:34:08.841Z,12.88
2019-05-18T06:35:08.843Z,12.95
2019-05-18T06:36:08.837Z,12.99
2019-05-18T06:37:08.837Z,13.05
2019-05-18T06:38:08.849Z,13.11
2019-05-18T06:39:08.935Z,13.20
2019-05-18T06:40:08.837Z,13.30
2019-05-18T06:41:08.839Z,13.36
2019-05-18T06:42:10.864Z,13.45
2019-05-18T06:43:08.837Z,13.52
2019-05-18T06:44:08.831Z,13.62
2019-05-18T06:45:08.832Z,13.75
2019-05-18T06:46:08.831Z,13.92
2019-05-18T06:47:08.830Z,14.07
2019-05-18T06:48:08.845Z,14.23
2019-05-18T06:49:08.831Z,14.40
2019-05-18T06:50:11.692Z,14.59
2019-05-18T06:51:08.833Z,14.74
2019-05-18T06:52:08.828Z,14.84
2019-05-18T06:53:08.844Z,14.91
2019-05-18T06:54:08.827Z,15.04
2019-05-18T06:55:08.827Z,15.17
2019-05-18T06:56:08.824Z,15.24
2019-05-18T06:57:08.829Z,15.26
2019-05-18T06:58:08.825Z,15.34
2019-05-18T06:59:08.832Z,15.40
2019-05-18T07:00:08.825Z,15.43
2019-05-18T07:01:08.823Z,15.39
2019-05-18T07:02:08.824Z,15.36
2019-05-18T07:03:08.823Z,15.33
2019-05-18T07:04:08.829Z,15.23
2019-05-18T07:05:08.829Z,15.17
2019-05-18T07:06:08.820Z,15.06
2019-05-18T07:07:08.822Z,14.96
2019-05-18T07:08:08.817Z,14.85
2019-05-18T07:09:13.568Z,14.80
2019-05-18T07:10:08.817Z,14.78
2019-05-18T07:11:08.816Z,14.78
2019-05-18T07:12:08.820Z,14.80
2019-05-18T07:13:08.819Z,14.81
2019-05-18T07:14:08.840Z,14.77
2019-05-18T07:15:08.817Z,14.78
2019-05-18T07:16:08.814Z,14.82
2019-05-18T07:17:08.813Z,14.79
2019-05-18T07:18:08.818Z,14.82
2019-05-18T07:19:08.820Z,14.92
2019-05-18T07:20:08.812Z,15.00
2019-05-18T07:21:21.322Z,15.07
2019-05-18T07:22:08.811Z,15.09
2019-05-18T07:23:08.814Z,15.07
2019-05-18T07:24:08.815Z,15.04
2019-05-18T07:25:08.807Z,15.04
2019-05-18T07:26:08.811Z,14.99
2019-05-18T07:27:08.811Z,15.01
2019-05-18T07:28:08.817Z,14.95
2019-05-18T07:29:08.819Z,14.91
2019-05-18T07:30:08.816Z,14.97
2019-05-18T07:31:08.809Z,15.03
2019-05-18T07:32:08.805Z,15.15
2019-05-18T07:33:08.809Z,15.28
2019-05-18T07:34:08.817Z,15.41
2019-05-18T07:35:08.811Z,15.58
2019-05-18T07:36:08.804Z,15.69
2019-05-18T07:37:08.802Z,15.77
2019-05-18T07:38:08.801Z,15.83
2019-05-18T07:39:08.805Z,15.85
2019-05-18T07:40:08.820Z,15.90
2019-05-18T07:41:08.800Z,15.97
2019-05-18T07:42:08.849Z,16.05
2019-05-18T07:43:08.798Z,16.15
2019-05-18T07:44:08.797Z,16.13
2019-05-18T07:45:08.803Z,16.07
2019-05-18T07:46:08.949Z,16.10
2019-05-18T07:47:08.796Z,16.19
2019-05-18T07:48:08.796Z,16.30
2019-05-18T07:49:08.796Z,16.37
2019-05-18T07:50:08.838Z,16.47
2019-05-18T07:51:08.794Z,16.66
2019-05-18T07:52:08.796Z,17.05
2019-05-18T07:53:08.800Z,17.77
2019-05-18T07:54:08.792Z,18.47
2019-05-18T07:55:08.829Z,19.34
2019-05-18T07:56:08.810Z,20.47
2019-05-18T07:57:08.791Z,21.55
2019-05-18T07:58:08.796Z,22.29
2019-05-18T07:59:08.789Z,22.59
2019-05-18T08:00:08.798Z,22.92
2019-05-18T08:01:08.787Z,23.31
2019-05-18T08:02:08.789Z,23.45
2019-05-18T08:03:08.787Z,23.44
2019-05-18T08:04:08.787Z,23.60
2019-05-18T08:05:08.801Z,23.97
2019-05-18T08:06:08.787Z,24.38
2019-05-18T08:07:08.784Z,24.69
2019-05-18T08:08:08.785Z,25.24
2019-05-18T08:09:08.786Z,25.69
2019-05-18T08:10:08.817Z,25.94
2019-05-18T08:11:08.784Z,26.08
2019-05-18T08:12:08.782Z,26.09
2019-05-18T08:13:08.788Z,25.75
2019-05-18T08:14:08.780Z,25.51
2019-05-18T08:15:08.780Z,25.73
2019-05-18T08:16:08.782Z,25.94
2019-05-18T08:17:08.784Z,26.10
2019-05-18T08:18:08.781Z,25.98
2019-05-18T08:19:08.792Z,25.73
2019-05-18T08:20:08.788Z,25.37
2019-05-18T08:21:08.780Z,25.26
2019-05-18T08:22:08.773Z,25.14
2019-05-18T08:23:08.775Z,25.02
2019-05-18T08:24:08.788Z,24.79
2019-05-18T08:25:08.783Z,24.46
2019-05-18T08:26:08.793Z,24.32
2019-05-18T08:27:08.776Z,24.18
2019-05-18T08:28:08.775Z,24.00
2019-05-18T08:29:08.772Z,23.78
2019-05-18T08:30:08.773Z,23.55
2019-05-18T08:31:08.792Z,23.12
2019-05-18T08:32:08.783Z,23.00
2019-05-18T08:33:08.832Z,22.94
2019-05-18T08:34:08.770Z,22.74
2019-05-18T08:35:08.773Z,22.40
2019-05-18T08:36:08.779Z,22.23
2019-05-18T08:37:08.765Z,22.01
2019-05-18T08:38:08.769Z,21.87
2019-05-18T08:39:08.786Z,21.78
2019-05-18T08:40:08.766Z,21.70
2019-05-18T08:41:08.775Z,21.54
2019-05-18T08:42:08.765Z,21.41
2019-05-18T08:43:08.765Z,21.43
2019-05-18T08:44:08.766Z,21.48
2019-05-18T08:45:08.790Z,21.44
2019-05-18T08:46:08.765Z,21.33
2019-05-18T08:47:08.767Z,21.12
2019-05-18T08:48:08.769Z,20.96
2019-05-18T08:49:08.763Z,20.80
2019-05-18T08:50:08.763Z,20.71
2019-05-18T08:51:08.763Z,20.61
2019-05-18T08:52:08.942Z,20.49
2019-05-18T08:53:08.759Z,20.41
2019-05-18T08:54:08.760Z,20.25
2019-05-18T08:55:08.759Z,20.12
2019-05-18T08:56:08.757Z,20.08
2019-05-18T08:57:08.761Z,20.07
2019-05-18T08:58:08.756Z,19.98
2019-05-18T08:59:08.758Z,20.02
2019-05-18T09:00:08.755Z,20.04
2019-05-18T09:01:08.756Z,19.94
2019-05-18T09:02:08.762Z,19.98
2019-05-18T09:03:08.751Z,19.99
2019-05-18T09:04:08.756Z,19.75
2019-05-18T09:05:08.758Z,19.61
2019-05-18T09:06:08.752Z,19.58
2019-05-18T09:07:08.761Z,19.70
2019-05-18T09:08:08.750Z,19.87
2019-05-18T09:09:08.753Z,20.08
2019-05-18T09:10:08.794Z,20.23
2019-05-18T09:11:08.749Z,20.35
2019-05-18T09:12:08.762Z,20.42
2019-05-18T09:13:08.753Z,20.45
2019-05-18T09:14:08.752Z,20.45
2019-05-18T09:15:08.747Z,20.45
2019-05-18T09:16:08.750Z,20.40
2019-05-18T09:17:08.762Z,20.35
2019-05-18T09:18:08.750Z,20.34
2019-05-18T09:19:08.745Z,20.40
2019-05-18T09:20:08.744Z,20.46
2019-05-18T09:21:08.746Z,20.51
2019-05-18T09:22:22.463Z,20.44
2019-05-18T09:23:08.743Z,20.32
2019-05-18T09:24:08.742Z,20.30
2019-05-18T09:25:08.743Z,20.31
2019-05-18T09:26:08.752Z,20.30
2019-05-18T09:27:08.751Z,20.34
2019-05-18T09:28:08.764Z,20.31
2019-05-18T09:29:08.742Z,20.28
2019-05-18T09:30:09.129Z,20.21
2019-05-18T09:31:08.744Z,20.21
2019-05-18T09:32:08.741Z,20.26
2019-05-18T09:33:08.740Z,20.30
2019-05-18T09:34:08.737Z,20.31
2019-05-18T09:35:08.818Z,20.32
2019-05-18T09:36:08.738Z,20.29
2019-05-18T09:37:08.746Z,20.12
2019-05-18T09:38:08.737Z,20.05
2019-05-18T09:39:08.738Z,20.07
2019-05-18T09:40:08.733Z,20.12
2019-05-18T09:41:08.734Z,20.20
2019-05-18T09:42:08.732Z,20.27
2019-05-18T09:43:08.736Z,20.38
2019-05-18T09:44:08.731Z,20.49
2019-05-18T09:45:08.736Z,20.54
2019-05-18T09:46:08.731Z,20.55
2019-05-18T09:47:08.731Z,20.51
2019-05-18T09:48:08.745Z,20.48
2019-05-18T09:49:08.734Z,20.54
2019-05-18T09:50:08.731Z,20.60
2019-05-18T09:51:09.645Z,20.63
2019-05-18T09:52:08.744Z,20.68
2019-05-18T09:53:08.747Z,20.74
2019-05-18T09:54:08.726Z,20.78
2019-05-18T09:55:08.725Z,20.88
2019-05-18T09:56:08.813Z,20.87
2019-05-18T09:57:08.721Z,20.75
2019-05-18T09:58:09.106Z,20.64
2019-05-18T09:59:08.722Z,20.59
2019-05-18T10:00:08.722Z,20.48
2019-05-18T10:01:08.723Z,20.41
2019-05-18T10:02:08.721Z,20.32
2019-05-18T10:03:08.731Z,20.06
2019-05-18T10:04:08.720Z,19.96
2019-05-18T10:05:08.720Z,20.00
2019-05-18T10:06:08.729Z,20.06
2019-05-18T10:07:08.718Z,20.17
2019-05-18T10:08:08.758Z,20.28
2019-05-18T10:09:08.714Z,20.40
2019-05-18T10:10:08.714Z,20.50
2019-05-18T10:11:08.718Z,20.57
2019-05-18T10:12:08.727Z,20.72
2019-05-18T10:13:08.721Z,20.78
2019-05-18T10:14:08.714Z,20.70
2019-05-18T10:15:08.715Z,20.61
2019-05-18T10:16:08.713Z,20.70
2019-05-18T10:17:08.713Z,20.84
2019-05-18T10:18:08.775Z,20.95
2019-05-18T10:19:08.721Z,21.02
2019-05-18T10:20:08.712Z,21.05
2019-05-18T10:21:08.710Z,21.13
2019-05-18T10:22:08.711Z,21.22
2019-05-18T10:23:12.672Z,21.22
2019-05-18T10:24:08.708Z,21.23
2019-05-18T10:25:08.715Z,21.24
2019-05-18T10:26:08.708Z,21.26
2019-05-18T10:27:08.708Z,21.25
2019-05-18T10:28:08.715Z,21.32
2019-05-18T10:29:08.707Z,21.34
2019-05-18T10:30:08.717Z,21.36
2019-05-18T10:31:08.707Z,21.40
2019-05-18T10:32:08.712Z,21.38
2019-05-18T10:33:08.715Z,21.44
2019-05-18T10:34:08.710Z,21.54
2019-05-18T10:35:08.704Z,21.53
2019-05-18T10:36:11.537Z,21.49
2019-05-18T10:37:08.700Z,21.51
2019-05-18T10:38:08.710Z,21.52
2019-05-18T10:39:08.704Z,21.58
2019-05-18T10:40:08.704Z,21.62
2019-05-18T10:41:08.699Z,21.68
2019-05-18T10:42:08.699Z,21.63
2019-05-18T10:43:08.699Z,21.44
2019-05-18T10:44:08.711Z,21.24
2019-05-18T10:45:08.698Z,21.17
2019-05-18T10:46:08.702Z,21.11
2019-05-18T10:47:08.696Z,20.98
2019-05-18T10:48:08.705Z,21.03
2019-05-18T10:49:08.702Z,21.24
2019-05-18T10:50:08.693Z,21.37
2019-05-18T10:51:09.293Z,21.45
2019-05-18T10:52:08.693Z,21.53
2019-05-18T10:53:08.696Z,21.61
2019-05-18T10:54:08.695Z,21.64
2019-05-18T10:55:08.694Z,21.65
2019-05-18T10:56:08.694Z,21.75
2019-05-18T10:57:08.691Z,21.81
2019-05-18T10:58:08.691Z,21.82
2019-05-18T10:59:08.695Z,21.89
2019-05-18T11:00:08.695Z,22.01
2019-05-18T11:01:08.687Z,22.05
2019-05-18T11:02:08.689Z,22.04
2019-05-18T11:03:08.687Z,21.96
2019-05-18T11:04:08.692Z,21.87
2019-05-18T11:05:08.686Z,21.74
2019-05-18T11:06:08.686Z,21.68
2019-05-18T11:07:08.686Z,21.71
2019-05-18T11:08:08.684Z,21.88
2019-05-18T11:09:08.720Z,22.09
2019-05-18T11:10:08.685Z,22.27
2019-05-18T11:11:08.683Z,22.29
2019-05-18T11:12:08.688Z,22.31
2019-05-18T11:13:08.690Z,22.27
2019-05-18T11:14:08.684Z,22.28
2019-05-18T11:15:08.681Z,22.29
2019-05-18T11:16:08.691Z,22.32
2019-05-18T11:17:08.680Z,22.42
2019-05-18T11:18:08.693Z,22.56
2019-05-18T11:19:08.689Z,22.65
2019-05-18T11:20:08.679Z,22.69
2019-05-18T11:21:08.682Z,22.76
2019-05-18T11:22:08.676Z,22.94
2019-05-18T11:23:08.677Z,22.79
2019-05-18T11:24:08.689Z,22.56
2019-05-18T11:25:08.677Z,22.65
2019-05-18T11:26:08.677Z,22.81
2019-05-18T11:27:08.678Z,22.99
2019-05-18T11:28:08.673Z,23.07
2019-05-18T11:29:08.682Z,23.03
2019-05-18T11:30:09.370Z,23.11
2019-05-18T11:31:08.672Z,23.13
2019-05-18T11:32:08.671Z,23.13
2019-05-18T11:33:08.672Z,23.20
2019-05-18T11:34:08.680Z,23.19
2019-05-18T11:35:08.672Z,23.00
2019-05-18T11:36:08.669Z,22.91
2019-05-18T11:37:08.669Z,22.88
2019-05-18T11:38:08.668Z,22.91
2019-05-18T11:39:08.684Z,23.04
2019-05-18T11:40:08.667Z,23.25
2019-05-18T11:41:08.666Z,23.29
2019-05-18T11:42:08.666Z,23.28
2019-05-18T11:43:08.666Z,23.28
2019-05-18T11:44:10.809Z,23.18
2019-05-18T11:45:08.673Z,23.14
2019-05-18T11:46:08.669Z,23.23
2019-05-18T11:47:08.672Z,23.17
2019-05-18T11:48:08.676Z,23.00
2019-05-18T11:49:08.664Z,22.94
2019-05-18T11:50:08.677Z,23.03
2019-05-18T11:51:08.662Z,23.15
2019-05-18T11:52:08.668Z,23.28
2019-05-18T11:53:08.666Z,23.41
2019-05-18T11:54:08.669Z,23.54
2019-05-18T11:55:08.663Z,23.64
2019-05-18T11:56:08.662Z,23.72
2019-05-18T11:57:08.668Z,23.74
2019-05-18T11:58:08.668Z,23.72
2019-05-18T11:59:08.659Z,23.81
2019-05-18T12:00:08.667Z,23.59
2019-05-18T12:01:08.660Z,23.36
2019-05-18T12:02:08.736Z,23.39
2019-05-18T12:03:08.660Z,23.46
2019-05-18T12:04:08.655Z,23.59
2019-05-18T12:05:08.662Z,23.61
2019-05-18T12:06:08.657Z,23.63
2019-05-18T12:07:08.656Z,23.65
2019-05-18T12:08:08.651Z,23.76
2019-05-18T12:09:08.653Z,23.94
2019-05-18T12:10:08.655Z,23.97
2019-05-18T12:11:08.653Z,24.05
2019-05-18T12:12:08.649Z,24.14
2019-05-18T12:13:08.654Z,24.22
2019-05-18T12:14:08.651Z,24.25
2019-05-18T12:15:08.658Z,24.31
2019-05-18T12:16:08.647Z,24.32
2019-05-18T12:17:08.648Z,24.23
2019-05-18T12:18:08.646Z,24.27
2019-05-18T12:19:08.647Z,24.29
2019-05-18T12:20:08.656Z,24.27
2019-05-18T12:21:08.650Z,24.25
2019-05-18T12:22:08.645Z,24.28
2019-05-18T12:23:09.031Z,24.26
2019-05-18T12:24:15.504Z,24.25
2019-05-18T12:25:08.665Z,24.46
2019-05-18T12:26:08.641Z,24.66
2019-05-18T12:27:08.642Z,24.75
2019-05-18T12:28:08.653Z,24.74
2019-05-18T12:29:08.639Z,24.72
2019-05-18T12:30:08.649Z,24.82
2019-05-18T12:31:08.638Z,25.05
2019-05-18T12:32:08.644Z,25.15
2019-05-18T12:33:08.644Z,24.99
2019-05-18T12:34:08.638Z,24.82
2019-05-18T12:35:08.648Z,24.80
2019-05-18T12:36:08.634Z,24.93
2019-05-18T12:37:08.635Z,24.98
2019-05-18T12:38:08.646Z,25.04
2019-05-18T12:39:08.639Z,25.10
2019-05-18T12:40:08.880Z,25.21
2019-05-18T12:41:08.633Z,25.28
2019-05-18T12:42:08.632Z,25.17
2019-05-18T12:43:08.634Z,25.02
2019-05-18T12:44:08.961Z,24.95
2019-05-18T12:45:08.632Z,24.84
2019-05-18T12:46:08.644Z,24.69
2019-05-18T12:47:08.629Z,24.83
2019-05-18T12:48:08.904Z,25.11
2019-05-18T12:49:08.649Z,25.20
2019-05-18T12:50:08.629Z,25.31
2019-05-18T12:51:08.634Z,25.42
2019-05-18T12:52:08.627Z,25.36
2019-05-18T12:53:08.629Z,25.16
2019-05-18T12:54:08.627Z,25.14
2019-05-18T12:55:08.625Z,25.23
2019-05-18T12:56:08.630Z,25.32
2019-05-18T12:57:08.627Z,25.41
2019-05-18T12:58:08.636Z,25.57
2019-05-18T12:59:08.625Z,25.81
2019-05-18T13:00:08.623Z,26.12
2019-05-18T13:01:08.647Z,26.22
2019-05-18T13:02:08.624Z,26.18
2019-05-18T13:03:08.621Z,26.15